Time;durP1;ratioP1;P1;durP2;ratioP2;P2;SDS_P1;SDS_P2;PMS_P1;PMS_P2;Temp;Humidity;BMP_temperature;BMP_pressure;BME280_temperature;BME280_humidity;BME280_pressure;Samples;Min_cycle;Max_cycle;Signal;HPM_P1;HPM_P2
2022/03/20 00:00:35;;;;;;;;;;;3.30;99.90;;;;;;5118524;27;20021;-67
2022/03/20 00:03:08;;;;;;;;;;;5.60;99.90;;;;;;5118624;27;19971;-67
2022/03/20 00:05:38;;;;;;;;;;;4.30;99.90;;;;;;5134917;27;19923;-67
2022/03/20 00:08:13;;;;;;;;;;;4.70;99.90;;;;;;5135859;27;19930;-67
2022/03/20 00:10:44;;;;;;;;;;;4.30;99.90;;;;;;5136737;27;20411;-66
2022/03/20 00:13:10;;;;;;;;;;;4.30;99.90;;;;;;5135429;27;19923;-66
2022/03/20 00:15:40;;;;;;;;;;;4.30;99.90;;;;;;5136587;27;20397;-67
2022/03/20 00:18:06;;;;;;;;;;;5.20;99.90;;;;;;5136417;27;20000;-69
2022/03/20 00:20:35;;;;;;;;;;;5.00;99.90;;;;;;5136616;27;19924;-70
2022/03/20 00:23:07;;;;;;;;;;;4.30;99.90;;;;;;5135563;27;19927;-69
2022/03/20 00:25:37;;;;;;;;;;;4.30;99.90;;;;;;5136539;27;19927;-69
2022/03/20 00:28:04;;;;;;;;;;;4.30;99.90;;;;;;5136364;27;20385;-67
2022/03/20 00:30:30;;;;;;;;;;;4.30;99.90;;;;;;5136317;27;19949;-67
2022/03/20 00:32:55;;;;;;;;;;;4.60;99.90;;;;;;5147169;27;19923;-69
2022/03/20 00:35:21;;;;;;;;;;;4.20;99.90;;;;;;5156996;27;19983;-68
2022/03/20 00:37:47;;;;;;;;;;;4.20;99.90;;;;;;5156751;27;19930;-69
2022/03/20 00:40:12;;;;;;;;;;;5.10;99.90;;;;;;5156713;27;20021;-67
2022/03/20 00:42:38;;;;;;;;;;;4.10;99.90;;;;;;5138606;27;19924;-67
2022/03/20 00:45:04;;;;;;;;;;;4.20;99.90;;;;;;5138463;27;19923;-68
2022/03/20 00:47:30;;;;;;;;;;;4.10;99.90;;;;;;5156465;27;20382;-67
2022/03/20 00:49:56;;;;;;;;;;;5.90;99.90;;;;;;5156666;27;19930;-68
2022/03/20 00:52:21;;;;;;;;;;;4.10;99.90;;;;;;5138203;27;19923;-67
2022/03/20 00:54:47;;;;;;;;;;;5.00;99.90;;;;;;5138369;27;19923;-67
2022/03/20 00:57:12;;;;;;;;;;;4.00;99.90;;;;;;5156543;27;19927;-68
2022/03/20 00:59:38;;;;;;;;;;;4.40;99.90;;;;;;5156438;27;19968;-67
2022/03/20 01:02:04;;;;;;;;;;;4.00;99.90;;;;;;5137928;27;20274;-67
2022/03/20 01:04:30;;;;;;;;;;;4.00;99.90;;;;;;5156256;27;20386;-67
2022/03/20 01:07:00;;;;;;;;;;;4.00;99.90;;;;;;5156404;27;20013;-67
2022/03/20 01:09:26;;;;;;;;;;;3.90;99.90;;;;;;5137805;27;19977;-67
2022/03/20 01:11:51;;;;;;;;;;;4.50;99.90;;;;;;5156174;27;19970;-68
2022/03/20 01:14:18;;;;;;;;;;;4.60;99.90;;;;;;5137685;27;20378;-66
2022/03/20 01:16:43;;;;;;;;;;;3.80;99.90;;;;;;5137465;27;19923;-67
2022/03/20 01:19:09;;;;;;;;;;;3.90;99.90;;;;;;5137470;27;19923;-67
2022/03/20 01:21:35;;;;;;;;;;;5.00;99.90;;;;;;5156379;27;19930;-69
2022/03/20 01:24:01;;;;;;;;;;;4.60;99.90;;;;;;5137864;27;20370;-67
2022/03/20 01:26:26;;;;;;;;;;;4.70;99.90;;;;;;5156025;27;19930;-67
2022/03/20 01:28:52;;;;;;;;;;;4.70;99.90;;;;;;5155958;27;19927;-69
2022/03/20 01:31:17;;;;;;;;;;;3.70;99.90;;;;;;5137316;27;20030;-69
2022/03/20 01:33:44;;;;;;;;;;;3.70;99.90;;;;;;5155824;27;20023;-69
2022/03/20 01:36:09;;;;;;;;;;;3.60;99.90;;;;;;5155826;27;19938;-68
2022/03/20 01:38:35;;;;;;;;;;;3.60;99.90;;;;;;5137630;27;20342;-67
2022/03/20 01:41:00;;;;;;;;;;;4.10;99.90;;;;;;5137688;27;19923;-68
2022/03/20 01:43:26;;;;;;;;;;;3.60;99.90;;;;;;5136568;27;19949;-68
2022/03/20 01:45:51;;;;;;;;;;;3.50;99.90;;;;;;5155597;27;19930;-67
2022/03/20 01:48:18;;;;;;;;;;;4.80;99.90;;;;;;5155384;27;20013;-66
2022/03/20 01:50:43;;;;;;;;;;;4.00;99.90;;;;;;5155590;27;20367;-67
2022/03/20 01:53:09;;;;;;;;;;;3.40;99.90;;;;;;5137254;27;19923;-67
2022/03/20 01:55:35;;;;;;;;;;;3.90;99.90;;;;;;5155539;27;19981;-67
2022/03/20 01:58:02;;;;;;;;;;;3.40;99.90;;;;;;5137121;27;19967;-67
2022/03/20 02:00:28;;;;;;;;;;;3.30;99.90;;;;;;5155459;27;20309;-67
2022/03/20 02:02:54;;;;;;;;;;;4.60;99.90;;;;;;5155284;27;19952;-67
2022/03/20 02:05:19;;;;;;;;;;;3.60;99.90;;;;;;5137038;27;19923;-68
2022/03/20 02:07:47;;;;;;;;;;;3.30;99.90;;;;;;5155508;27;19930;-67
2022/03/20 02:10:13;;;;;;;;;;;3.60;99.90;;;;;;5137080;27;19934;-69
2022/03/20 02:12:39;;;;;;;;;;;3.00;99.90;;;;;;5136727;27;19923;-69
2022/03/20 02:15:06;;;;;;;;;;;4.70;99.90;;;;;;5155381;27;19923;-66
2022/03/20 02:17:31;;;;;;;;;;;3.20;99.90;;;;;;5155312;27;20480;-67
2022/03/20 02:19:57;;;;;;;;;;;4.00;99.90;;;;;;5155138;27;19962;-69
2022/03/20 02:22:24;;;;;;;;;;;4.20;99.90;;;;;;5155453;27;20282;-67
2022/03/20 02:24:51;;;;;;;;;;;4.20;99.90;;;;;;5155091;27;20361;-69
2022/03/20 02:27:24;;;;;;;;;;;3.10;99.90;;;;;;5155259;27;19930;-69
2022/03/20 02:30:13;;;;;;;;;;;3.10;99.90;;;;;;5155239;27;19923;-67
2022/03/20 02:32:39;;;;;;;;;;;1.10;99.90;;;;;;5154767;27;19923;-67
2022/03/20 02:35:06;;;;;;;;;;;5.10;99.90;;;;;;5155171;27;19969;-68
2022/03/20 02:37:32;;;;;;;;;;;3.10;99.90;;;;;;5155183;27;19923;-66
2022/03/20 02:39:59;;;;;;;;;;;3.10;99.90;;;;;;5155156;27;19923;-67
2022/03/20 02:42:26;;;;;;;;;;;3.80;99.90;;;;;;5155073;27;19924;-67
2022/03/20 02:44:56;;;;;;;;;;;4.10;99.90;;;;;;5154977;27;19978;-68
2022/03/20 02:47:23;;;;;;;;;;;3.00;99.90;;;;;;5136654;27;19923;-67
2022/03/20 02:49:50;;;;;;;;;;;3.00;99.90;;;;;;5136853;27;19923;-67
2022/03/20 02:52:15;;;;;;;;;;;3.00;99.90;;;;;;5136538;27;19946;-70
2022/03/20 02:54:42;;;;;;;;;;;3.40;99.90;;;;;;5137595;27;20393;-68
2022/03/20 02:57:08;;;;;;;;;;;2.90;99.90;;;;;;5158885;27;20400;-66
2022/03/20 02:59:34;;;;;;;;;;;3.50;99.90;;;;;;5140597;27;19970;-67
2022/03/20 03:02:01;;;;;;;;;;;3.80;99.90;;;;;;5158552;27;20013;-68
2022/03/20 03:04:26;;;;;;;;;;;2.90;99.90;;;;;;5158902;27;19929;-69
2022/03/20 03:06:52;;;;;;;;;;;3.90;99.90;;;;;;5158780;27;19923;-66
2022/03/20 03:12:04;;;;;;;;;;;2.80;99.90;;;;;;5158453;27;20029;-67
2022/03/20 03:17:14;;;;;;;;;;;3.90;99.90;;;;;;5158494;27;19929;-67
2022/03/20 03:19:39;;;;;;;;;;;4.30;99.90;;;;;;5158481;27;19923;-66
2022/03/20 03:22:05;;;;;;;;;;;3.80;99.90;;;;;;5158478;27;19978;-66
2022/03/20 03:24:30;;;;;;;;;;;3.30;99.90;;;;;;5158266;27;19970;-67
2022/03/20 03:26:56;;;;;;;;;;;2.70;99.90;;;;;;5158246;27;19968;-68
2022/03/20 03:29:21;;;;;;;;;;;3.60;99.90;;;;;;5158034;27;19968;-69
2022/03/20 03:31:47;;;;;;;;;;;4.40;99.90;;;;;;5157952;27;19930;-65
2022/03/20 03:36:57;;;;;;;;;;;2.70;99.90;;;;;;5158052;27;19985;-67
2022/03/20 03:39:23;;;;;;;;;;;2.70;99.90;;;;;;5158010;27;19962;-67
2022/03/20 03:41:51;;;;;;;;;;;2.60;99.90;;;;;;5157887;27;19984;-69
2022/03/20 03:44:17;;;;;;;;;;;4.50;99.90;;;;;;5158142;27;19923;-67
2022/03/20 03:46:43;;;;;;;;;;;3.20;99.90;;;;;;5157927;27;19927;-67
2022/03/20 03:49:08;;;;;;;;;;;2.60;99.90;;;;;;5157944;27;19992;-67
2022/03/20 03:51:34;;;;;;;;;;;3.40;99.90;;;;;;5157817;27;19945;-68
2022/03/20 03:53:59;;;;;;;;;;;3.30;99.90;;;;;;5139551;27;19930;-67
2022/03/20 03:56:25;;;;;;;;;;;3.70;99.90;;;;;;5157532;27;19929;-70
2022/03/20 03:58:50;;;;;;;;;;;2.50;99.90;;;;;;5157797;27;19929;-67
2022/03/20 04:01:16;;;;;;;;;;;3.70;99.90;;;;;;5157733;27;20370;-67
2022/03/20 04:03:42;;;;;;;;;;;2.50;99.90;;;;;;5139397;27;20290;-67
2022/03/20 04:06:08;;;;;;;;;;;2.40;99.90;;;;;;5157232;27;20018;-67
2022/03/20 04:08:34;;;;;;;;;;;2.40;99.90;;;;;;5157428;27;19966;-66
2022/03/20 04:11:00;;;;;;;;;;;4.00;99.90;;;;;;5139140;27;20366;-70
2022/03/20 04:13:26;;;;;;;;;;;3.60;99.90;;;;;;5138660;27;19923;-68
2022/03/20 04:15:52;;;;;;;;;;;3.00;99.90;;;;;;5157469;27;19931;-66
2022/03/20 04:18:17;;;;;;;;;;;3.10;99.90;;;;;;5157364;27;20416;-67
2022/03/20 04:20:44;;;;;;;;;;;4.20;99.90;;;;;;5157228;27;19927;-67
2022/03/20 04:25:54;;;;;;;;;;;3.80;99.90;;;;;;5157057;27;19923;-66
2022/03/20 04:28:21;;;;;;;;;;;3.50;99.90;;;;;;5157299;27;19923;-68
2022/03/20 04:30:48;;;;;;;;;;;2.40;99.90;;;;;;5157161;27;19975;-68
2022/03/20 04:33:14;;;;;;;;;;;4.00;99.90;;;;;;5138199;27;19966;-69
2022/03/20 04:35:39;;;;;;;;;;;2.40;99.90;;;;;;5156888;27;19981;-68
2022/03/20 04:38:05;;;;;;;;;;;2.40;99.90;;;;;;5156844;27;20018;-67
2022/03/20 04:40:30;;;;;;;;;;;2.60;99.90;;;;;;5138583;27;19929;-66
2022/03/20 04:42:56;;;;;;;;;;;2.30;99.90;;;;;;5156769;27;20014;-66
2022/03/20 04:45:22;;;;;;;;;;;3.30;99.90;;;;;;5138482;27;19970;-68
2022/03/20 04:58:43;;;;;;;;;;;2.30;99.90;;;;;;5156473;27;19934;-68
2022/03/20 05:01:09;;;;;;;;;;;2.30;99.90;;;;;;5156410;27;20002;-67
2022/03/20 05:03:35;;;;;;;;;;;3.50;99.90;;;;;;5156212;27;20389;-68
2022/03/20 05:06:02;;;;;;;;;;;4.60;99.90;;;;;;5156546;27;19923;-67
2022/03/20 05:08:28;;;;;;;;;;;2.40;99.90;;;;;;5156425;27;19923;-67
2022/03/20 05:13:38;;;;;;;;;;;3.20;99.90;;;;;;5156133;27;20070;-68
2022/03/20 05:16:04;;;;;;;;;;;2.30;99.90;;;;;;5156233;27;19996;-66
2022/03/20 05:18:32;;;;;;;;;;;2.90;99.90;;;;;;5155130;27;19946;-70
2022/03/20 05:20:57;;;;;;;;;;;2.20;99.90;;;;;;5156312;27;20317;-67
2022/03/20 05:23:23;;;;;;;;;;;3.60;99.90;;;;;;5156047;27;19933;-67
2022/03/20 05:25:49;;;;;;;;;;;3.90;99.90;;;;;;5137882;27;19929;-67
2022/03/20 05:28:15;;;;;;;;;;;2.70;99.90;;;;;;5137527;27;20266;-69
2022/03/20 05:30:42;;;;;;;;;;;2.20;99.90;;;;;;5155860;27;19923;-66
2022/03/20 05:33:10;;;;;;;;;;;2.50;99.90;;;;;;5155652;27;19975;-69
2022/03/20 05:35:39;;;;;;;;;;;3.60;99.90;;;;;;5137711;27;20442;-67
2022/03/20 05:38:09;;;;;;;;;;;2.20;99.90;;;;;;5137660;27;19989;-68
2022/03/20 05:40:34;;;;;;;;;;;2.10;99.90;;;;;;5155838;27;19970;-67
2022/03/20 05:43:00;;;;;;;;;;;2.10;99.90;;;;;;5155710;27;19930;-68
2022/03/20 05:45:25;;;;;;;;;;;2.80;99.90;;;;;;5155737;27;19930;-67
2022/03/20 05:47:51;;;;;;;;;;;2.80;99.90;;;;;;5155351;27;19930;-66
2022/03/20 05:50:16;;;;;;;;;;;2.60;99.90;;;;;;5137193;27;19923;-66
2022/03/20 05:52:42;;;;;;;;;;;2.10;99.90;;;;;;5137218;27;19927;-67
2022/03/20 05:55:08;;;;;;;;;;;2.70;99.90;;;;;;5155470;27;19923;-66
2022/03/20 06:00:21;;;;;;;;;;;2.10;99.90;;;;;;5155368;27;19930;-66
2022/03/20 06:02:47;;;;;;;;;;;2.10;99.90;;;;;;5155523;27;19923;-67
2022/03/20 06:05:12;;;;;;;;;;;2.10;99.90;;;;;;5155568;27;19927;-67
2022/03/20 06:07:43;;;;;;;;;;;2.70;99.90;;;;;;5155509;27;19930;-66
2022/03/20 06:10:18;;;;;;;;;;;2.10;99.90;;;;;;5137086;27;19923;-67
2022/03/20 06:12:44;;;;;;;;;;;2.10;99.90;;;;;;5155189;27;19930;-67
2022/03/20 06:15:10;;;;;;;;;;;2.10;99.90;;;;;;5136790;27;20060;-68
2022/03/20 06:17:46;;;;;;;;;;;2.10;99.90;;;;;;5137003;27;19971;-67
2022/03/20 06:20:13;;;;;;;;;;;2.10;99.90;;;;;;5155473;27;19923;-67
2022/03/20 06:22:39;;;;;;;;;;;2.90;99.90;;;;;;5136919;27;20018;-67
2022/03/20 06:25:08;;;;;;;;;;;2.10;99.90;;;;;;5155193;27;19963;-67
2022/03/20 06:27:40;;;;;;;;;;;2.80;99.90;;;;;;5155119;27;20003;-66
2022/03/20 06:30:06;;;;;;;;;;;2.20;99.90;;;;;;5156891;27;19923;-66
2022/03/20 06:32:32;;;;;;;;;;;2.20;99.90;;;;;;5140043;27;20405;-67
2022/03/20 06:34:57;;;;;;;;;;;3.30;99.90;;;;;;5159302;27;19923;-67
2022/03/20 06:37:23;;;;;;;;;;;2.20;99.90;;;;;;5159264;27;19927;-66
2022/03/20 06:39:49;;;;;;;;;;;2.30;99.90;;;;;;5159264;27;19966;-65
2022/03/20 06:42:14;;;;;;;;;;;3.50;99.90;;;;;;5159137;27;19945;-67
2022/03/20 06:44:40;;;;;;;;;;;2.90;99.90;;;;;;5158993;27;19923;-65
2022/03/20 06:47:05;;;;;;;;;;;3.00;99.90;;;;;;5159050;27;19923;-69
2022/03/20 06:49:32;;;;;;;;;;;2.40;99.90;;;;;;5158012;27;19933;-67
2022/03/20 06:51:57;;;;;;;;;;;3.50;99.90;;;;;;5158938;27;20022;-70
2022/03/20 06:54:23;;;;;;;;;;;2.60;99.90;;;;;;5140614;27;20070;-67
2022/03/20 06:56:49;;;;;;;;;;;2.90;99.90;;;;;;5140545;27;19923;-67
2022/03/20 06:59:16;;;;;;;;;;;2.50;99.90;;;;;;5140138;27;19923;-65
2022/03/20 07:01:41;;;;;;;;;;;4.20;99.90;;;;;;5140641;27;19981;-70
2022/03/20 07:04:06;;;;;;;;;;;2.60;99.90;;;;;;5139711;27;19991;-66
2022/03/20 07:06:33;;;;;;;;;;;2.60;99.90;;;;;;5158744;27;20433;-67
2022/03/20 07:09:00;;;;;;;;;;;2.70;99.90;;;;;;5158663;27;19930;-66
2022/03/20 07:11:32;;;;;;;;;;;2.80;99.90;;;;;;5158594;27;20404;-67
2022/03/20 07:13:58;;;;;;;;;;;4.30;99.90;;;;;;5158379;27;20397;-67
2022/03/20 07:16:29;;;;;;;;;;;3.50;99.90;;;;;;5158624;27;19923;-70
2022/03/20 07:18:55;;;;;;;;;;;3.00;99.90;;;;;;5158565;27;19923;-67
2022/03/20 07:21:21;;;;;;;;;;;3.00;99.90;;;;;;5158301;27;20014;-67
2022/03/20 07:23:47;;;;;;;;;;;5.00;99.90;;;;;;5139836;27;19923;-66
2022/03/20 07:31:41;;;;;;;;;;;3.60;99.90;;;;;;5158156;27;19975;-69
2022/03/20 07:34:07;;;;;;;;;;;3.40;99.90;;;;;;5157738;27;19924;-69
2022/03/20 07:36:32;;;;;;;;;;;3.40;99.90;;;;;;5158056;27;20270;-69
2022/03/20 07:38:58;;;;;;;;;;;3.50;99.90;;;;;;5158065;27;20384;-67
2022/03/20 07:41:24;;;;;;;;;;;3.80;99.90;;;;;;5156868;27;19958;-67
2022/03/20 07:43:50;;;;;;;;;;;3.90;99.90;;;;;;5158060;27;19977;-68
2022/03/20 07:46:15;;;;;;;;;;;3.70;99.90;;;;;;5158046;27;19923;-68
2022/03/20 07:48:41;;;;;;;;;;;4.60;99.90;;;;;;5157842;27;20320;-68
2022/03/20 07:51:07;;;;;;;;;;;5.20;99.90;;;;;;5157641;27;20346;-67
2022/03/20 07:53:32;;;;;;;;;;;3.80;99.90;;;;;;5139085;27;19931;-69
2022/03/20 07:55:58;;;;;;;;;;;3.80;99.90;;;;;;5157624;27;20289;-68
2022/03/20 07:58:24;;;;;;;;;;;3.90;99.90;;;;;;5157791;27;19931;-67
2022/03/20 08:00:50;;;;;;;;;;;4.00;99.90;;;;;;5139392;27;19923;-67
2022/03/20 08:03:15;;;;;;;;;;;4.00;99.90;;;;;;5139092;27;19930;-69
2022/03/20 08:05:41;;;;;;;;;;;4.10;99.90;;;;;;5158014;27;19923;-67
2022/03/20 08:08:11;;;;;;;;;;;5.40;99.90;;;;;;5139303;27;19968;-68
2022/03/20 08:10:36;;;;;;;;;;;5.00;99.90;;;;;;5157408;27;19923;-67
2022/03/20 08:13:02;;;;;;;;;;;4.40;99.90;;;;;;5157490;27;19923;-67
2022/03/20 08:15:27;;;;;;;;;;;4.30;99.90;;;;;;5157110;27;19923;-67
2022/03/20 08:17:53;;;;;;;;;;;4.40;99.90;;;;;;5138947;27;19986;-66
2022/03/20 08:20:19;;;;;;;;;;;5.20;99.90;;;;;;5157330;27;20013;-67
2022/03/20 08:22:44;;;;;;;;;;;5.60;99.90;;;;;;5156962;27;19974;-68
2022/03/20 08:25:10;;;;;;;;;;;4.60;99.90;;;;;;5138636;27;19927;-67
2022/03/20 08:27:42;;;;;;;;;;;4.70;99.90;;;;;;5138129;27;19926;-68
2022/03/20 08:30:11;;;;;;;;;;;4.70;99.90;;;;;;5157240;27;20341;-67
2022/03/20 08:32:37;;;;;;;;;;;4.80;99.90;;;;;;5156584;27;20014;-67
2022/03/20 08:35:04;;;;;;;;;;;4.80;99.90;;;;;;5138452;27;20403;-67
2022/03/20 08:37:31;;;;;;;;;;;4.90;99.90;;;;;;5121860;27;19930;-68
2022/03/20 08:39:57;;;;;;;;;;;6.60;99.90;;;;;;5138473;27;19930;-70
2022/03/20 08:42:23;;;;;;;;;;;5.00;99.90;;;;;;5156972;27;19927;-72
2022/03/20 08:44:50;;;;;;;;;;;5.10;99.90;;;;;;5138426;27;20010;-69
2022/03/20 08:47:16;;;;;;;;;;;5.70;99.90;;;;;;5138166;27;20446;-71
2022/03/20 08:49:42;;;;;;;;;;;6.00;99.90;;;;;;5138337;27;19923;-69
2022/03/20 08:52:08;;;;;;;;;;;5.30;99.90;;;;;;5156521;27;19923;-69
2022/03/20 08:54:33;;;;;;;;;;;5.30;99.90;;;;;;5138259;27;19927;-69
2022/03/20 08:57:01;;;;;;;;;;;5.60;99.90;;;;;;5156458;27;19934;-71
2022/03/20 08:59:26;;;;;;;;;;;7.00;99.90;;;;;;5156589;27;19974;-69
2022/03/20 09:01:52;;;;;;;;;;;5.90;99.90;;;;;;5156566;27;20310;-73
2022/03/20 09:04:17;;;;;;;;;;;5.60;99.90;;;;;;5156255;27;19923;-71
2022/03/20 09:06:47;;;;;;;;;;;5.60;99.90;;;;;;5156360;27;19923;-69
2022/03/20 09:09:14;;;;;;;;;;;6.60;99.90;;;;;;5156250;27;19923;-72
2022/03/20 09:11:41;;;;;;;;;;;5.80;99.90;;;;;;5156140;27;19923;-69
2022/03/20 09:14:07;;;;;;;;;;;6.50;99.50;;;;;;5156398;27;20013;-69
2022/03/20 09:19:18;;;;;;;;;;;6.00;99.90;;;;;;5155782;27;20010;-67
2022/03/20 09:21:44;;;;;;;;;;;6.40;99.90;;;;;;5155950;27;19999;-68
2022/03/20 09:24:09;;;;;;;;;;;6.90;99.90;;;;;;5155918;27;20327;-66
2022/03/20 09:26:35;;;;;;;;;;;6.90;96.70;;;;;;5156027;27;19930;-69
2022/03/20 09:29:01;;;;;;;;;;;6.80;99.00;;;;;;5155953;27;19923;-67
2022/03/20 09:31:27;;;;;;;;;;;6.40;99.80;;;;;;5137433;27;19930;-67
2022/03/20 09:33:52;;;;;;;;;;;7.50;96.40;;;;;;5155349;27;19923;-67
2022/03/20 09:36:18;;;;;;;;;;;6.60;99.80;;;;;;5155678;27;19996;-67
2022/03/20 09:38:44;;;;;;;;;;;6.70;97.30;;;;;;5155646;27;20017;-67
2022/03/20 09:41:11;;;;;;;;;;;6.80;96.10;;;;;;5137726;27;19929;-69
2022/03/20 09:43:38;;;;;;;;;;;6.90;97.90;;;;;;5137352;27;19923;-68
2022/03/20 09:46:03;;;;;;;;;;;8.00;96.00;;;;;;5155863;27;19931;-67
2022/03/20 09:48:30;;;;;;;;;;;5.80;91.60;;;;;;5155584;27;19930;-66
2022/03/20 09:50:57;;;;;;;;;;;7.30;92.50;;;;;;5155276;27;19924;-68
2022/03/20 09:53:22;;;;;;;;;;;7.10;81.00;;;;;;5155416;27;19945;-68
2022/03/20 09:55:49;;;;;;;;;;;7.20;83.70;;;;;;5155417;27;19923;-66
2022/03/20 09:58:14;;;;;;;;;;;7.70;88.00;;;;;;5137355;27;19924;-67
2022/03/20 10:00:40;;;;;;;;;;;7.90;90.30;;;;;;5155694;27;20362;-67
2022/03/20 10:03:16;;;;;;;;;;;7.80;82.00;;;;;;5155381;27;20075;-68
2022/03/20 10:05:41;;;;;;;;;;;7.60;91.10;;;;;;5154985;27;19923;-67
2022/03/20 10:08:10;;;;;;;;;;;8.70;86.30;;;;;;5155289;27;20309;-67
2022/03/20 10:10:36;;;;;;;;;;;7.90;76.70;;;;;;5119762;27;19968;-67
2022/03/20 10:13:08;;;;;;;;;;;7.80;76.00;;;;;;5155369;27;19968;-69
2022/03/20 10:15:35;;;;;;;;;;;8.80;79.90;;;;;;5155274;27;20025;-65
2022/03/20 10:18:06;;;;;;;;;;;7.90;74.00;;;;;;5155202;27;20397;-66
2022/03/20 10:20:44;;;;;;;;;;;7.90;74.90;;;;;;5155327;27;19923;-67
2022/03/20 10:23:28;;;;;;;;;;;8.00;78.20;;;;;;5155377;27;19923;-66
2022/03/20 10:25:54;;;;;;;;;;;8.20;80.60;;;;;;5155283;27;20389;-67
2022/03/20 10:28:19;;;;;;;;;;;8.20;74.10;;;;;;5155173;27;19923;-68
2022/03/20 10:31:01;;;;;;;;;;;8.30;76.40;;;;;;5136713;27;19984;-67
2022/03/20 10:33:27;;;;;;;;;;;8.40;69.50;;;;;;5154671;27;19923;-67
2022/03/20 10:36:11;;;;;;;;;;;8.50;70.40;;;;;;5155278;27;19931;-67
2022/03/20 10:38:37;;;;;;;;;;;8.60;72.40;;;;;;5155160;27;19923;-65
2022/03/20 10:41:15;;;;;;;;;;;8.70;70.10;;;;;;5154829;27;19945;-67
2022/03/20 10:43:41;;;;;;;;;;;8.80;67.80;;;;;;5136311;27;19930;-67
2022/03/20 10:46:10;;;;;;;;;;;8.90;70.20;;;;;;5154679;27;19930;-68
2022/03/20 10:48:38;;;;;;;;;;;9.00;67.80;;;;;;5154795;27;19923;-66
2022/03/20 10:51:05;;;;;;;;;;;9.20;66.30;;;;;;5136441;27;19979;-67
2022/03/20 10:53:31;;;;;;;;;;;9.10;66.00;;;;;;5154845;27;19923;-67
2022/03/20 10:56:07;;;;;;;;;;;9.20;63.90;;;;;;5154702;27;20022;-65
2022/03/20 10:58:36;;;;;;;;;;;9.30;62.90;;;;;;5154618;27;19927;-69
2022/03/20 11:01:02;;;;;;;;;;;9.40;64.00;;;;;;5154464;27;20396;-69
2022/03/20 11:03:28;;;;;;;;;;;9.50;61.70;;;;;;5154593;27;19923;-67
2022/03/20 11:05:54;;;;;;;;;;;9.60;63.70;;;;;;5154687;27;19966;-67
2022/03/20 11:08:20;;;;;;;;;;;9.60;60.60;;;;;;5154526;27;20021;-67
2022/03/20 11:10:46;;;;;;;;;;;9.70;60.80;;;;;;5136336;27;20018;-67
2022/03/20 11:13:15;;;;;;;;;;;9.90;62.30;;;;;;5153802;27;19970;-67
2022/03/20 11:15:44;;;;;;;;;;;10.30;60.20;;;;;;5154682;27;19930;-67
2022/03/20 11:18:12;;;;;;;;;;;9.90;61.60;;;;;;5139401;27;19923;-66
2022/03/20 11:20:39;;;;;;;;;;;10.00;60.20;;;;;;5157951;27;20381;-68
2022/03/20 11:23:05;;;;;;;;;;;10.00;60.20;;;;;;5157978;27;19934;-69
2022/03/20 11:25:32;;;;;;;;;;;10.10;58.90;;;;;;5158214;27;19923;-67
2022/03/20 11:28:01;;;;;;;;;;;10.20;59.40;;;;;;5157791;27;19923;-68
2022/03/20 11:30:28;;;;;;;;;;;10.20;59.20;;;;;;5139779;27;19927;-70
2022/03/20 11:32:56;;;;;;;;;;;10.30;58.50;;;;;;5157999;27;19927;-67
2022/03/20 11:35:25;;;;;;;;;;;10.40;58.10;;;;;;5157994;27;20355;-68
2022/03/20 11:37:53;;;;;;;;;;;10.40;60.30;;;;;;5139595;27;20018;-67
2022/03/20 11:40:21;;;;;;;;;;;10.60;58.20;;;;;;5157879;27;19923;-66
2022/03/20 11:42:47;;;;;;;;;;;10.50;57.50;;;;;;5157728;27;19935;-70
2022/03/20 11:45:16;;;;;;;;;;;10.60;57.90;;;;;;5139222;27;19930;-66
2022/03/20 11:47:42;;;;;;;;;;;10.60;57.30;;;;;;5157851;27;19948;-67
2022/03/20 11:50:12;;;;;;;;;;;10.00;57.30;;;;;;5122192;27;19927;-69
2022/03/20 11:52:45;;;;;;;;;;;10.70;58.40;;;;;;5157614;27;19923;-69
2022/03/20 11:55:29;;;;;;;;;;;10.70;57.70;;;;;;5157568;27;20341;-67
2022/03/20 11:57:55;;;;;;;;;;;10.70;57.50;;;;;;5157688;27;20009;-68
2022/03/20 12:00:25;;;;;;;;;;;11.30;57.40;;;;;;5157621;27;19968;-69
2022/03/20 12:02:53;;;;;;;;;;;10.80;54.80;;;;;;5157505;27;19924;-67
2022/03/20 12:05:24;;;;;;;;;;;10.90;56.70;;;;;;5157357;27;20022;-67
2022/03/20 12:07:55;;;;;;;;;;;11.00;55.40;;;;;;5157233;27;19923;-69
2022/03/20 12:10:40;;;;;;;;;;;10.90;54.60;;;;;;5157250;27;20319;-67
2022/03/20 12:13:08;;;;;;;;;;;11.00;54.30;;;;;;5157190;27;19945;-68
2022/03/20 12:15:40;;;;;;;;;;;11.00;53.50;;;;;;5157157;27;19981;-67
2022/03/20 12:18:08;;;;;;;;;;;11.10;54.10;;;;;;5157136;27;19983;-67
2022/03/20 12:20:59;;;;;;;;;;;11.10;53.70;;;;;;5156870;27;20486;-66
2022/03/20 12:23:39;;;;;;;;;;;11.20;54.10;;;;;;5157230;27;19923;-67
2022/03/20 12:26:24;;;;;;;;;;;11.20;53.70;;;;;;5156915;27;19923;-68
2022/03/20 12:28:49;;;;;;;;;;;11.20;53.60;;;;;;5156243;27;20366;-68
2022/03/20 12:31:28;;;;;;;;;;;11.30;54.10;;;;;;5138528;27;19930;-67
2022/03/20 12:34:12;;;;;;;;;;;11.30;54.60;;;;;;5156701;27;19927;-67
2022/03/20 12:36:38;;;;;;;;;;;11.40;52.20;;;;;;5156638;27;19969;-67
2022/03/20 12:39:03;;;;;;;;;;;11.40;54.40;;;;;;5156681;27;20026;-68
2022/03/20 12:41:29;;;;;;;;;;;11.30;53.10;;;;;;5156544;27;19984;-69
2022/03/20 12:43:59;;;;;;;;;;;11.30;54.10;;;;;;5156787;27;20370;-67
2022/03/20 12:46:24;;;;;;;;;;;11.30;52.70;;;;;;5156665;27;19930;-68
2022/03/20 12:48:51;;;;;;;;;;;11.40;53.60;;;;;;5156485;27;19923;-69
2022/03/20 12:51:21;;;;;;;;;;;11.40;52.70;;;;;;5156377;27;19931;-68
2022/03/20 12:53:47;;;;;;;;;;;11.40;53.30;;;;;;5156261;27;19992;-69
2022/03/20 12:58:42;;;;;;;;;;;11.50;52.30;;;;;;5156525;27;19923;-68
2022/03/20 13:01:08;;;;;;;;;;;11.60;53.70;;;;;;5137552;27;19930;-67
2022/03/20 13:03:37;;;;;;;;;;;11.50;53.10;;;;;;5156065;27;19927;-67
2022/03/20 13:06:03;;;;;;;;;;;11.50;52.90;;;;;;5156224;27;19927;-70
2022/03/20 13:08:30;;;;;;;;;;;11.50;53.20;;;;;;5155996;27;20022;-70
2022/03/20 13:10:56;;;;;;;;;;;11.70;54.50;;;;;;5120445;27;19970;-68
2022/03/20 13:13:35;;;;;;;;;;;12.40;54.60;;;;;;5137595;27;20014;-68
2022/03/20 13:16:01;;;;;;;;;;;11.60;52.20;;;;;;5155852;27;20486;-68
2022/03/20 13:18:45;;;;;;;;;;;11.60;52.10;;;;;;5155951;27;19962;-70
2022/03/20 13:21:11;;;;;;;;;;;11.60;52.60;;;;;;5136487;27;19923;-66
2022/03/20 13:23:36;;;;;;;;;;;11.60;52.30;;;;;;5155767;27;19931;-68
2022/03/20 13:26:02;;;;;;;;;;;11.70;52.80;;;;;;5155816;27;19927;-66
2022/03/20 13:28:33;;;;;;;;;;;11.70;51.80;;;;;;5155673;27;19966;-68
2022/03/20 13:31:01;;;;;;;;;;;11.80;52.90;;;;;;5155720;27;19929;-68
2022/03/20 13:33:51;;;;;;;;;;;11.80;51.00;;;;;;5155210;27;19931;-69
2022/03/20 13:36:17;;;;;;;;;;;11.90;51.90;;;;;;5155476;27;19923;-67
2022/03/20 13:38:43;;;;;;;;;;;11.90;52.20;;;;;;5155349;27;20022;-69
2022/03/20 13:41:11;;;;;;;;;;;11.90;51.30;;;;;;5155130;27;19965;-67
2022/03/20 13:43:37;;;;;;;;;;;11.90;51.50;;;;;;5136230;27;19923;-68
2022/03/20 13:46:13;;;;;;;;;;;11.90;52.20;;;;;;5155459;27;19930;-69
2022/03/20 13:48:51;;;;;;;;;;;11.90;52.20;;;;;;5154837;27;20444;-69
2022/03/20 13:51:18;;;;;;;;;;;11.90;51.10;;;;;;5155396;27;20301;-68
2022/03/20 13:53:44;;;;;;;;;;;11.90;50.50;;;;;;5136552;27;19982;-68
2022/03/20 13:56:24;;;;;;;;;;;11.00;50.00;;;;;;5155125;27;19975;-68
2022/03/20 13:59:04;;;;;;;;;;;11.90;51.70;;;;;;5155025;27;20301;-70
2022/03/20 14:01:30;;;;;;;;;;;11.90;52.00;;;;;;5154932;27;19934;-68
2022/03/20 14:04:07;;;;;;;;;;;11.90;51.40;;;;;;5155171;27;19927;-70
2022/03/20 14:06:36;;;;;;;;;;;11.90;51.80;;;;;;5135962;27;20409;-70
2022/03/20 14:09:04;;;;;;;;;;;11.90;52.20;;;;;;5154939;27;19923;-67
2022/03/20 14:11:35;;;;;;;;;;;12.00;51.10;;;;;;5135992;27;19962;-68
2022/03/20 14:14:01;;;;;;;;;;;12.00;51.10;;;;;;5154735;27;19923;-68
2022/03/20 14:16:26;;;;;;;;;;;11.90;51.10;;;;;;5155049;27;19930;-70
2022/03/20 14:18:52;;;;;;;;;;;11.90;50.80;;;;;;5155091;27;20184;-68
2022/03/20 14:21:22;;;;;;;;;;;11.80;51.20;;;;;;5155032;27;19930;-68
2022/03/20 14:23:56;;;;;;;;;;;11.70;51.20;;;;;;5136588;27;19938;-68
2022/03/20 14:26:22;;;;;;;;;;;11.70;52.10;;;;;;5154962;27;19923;-66
2022/03/20 14:29:00;;;;;;;;;;;11.70;51.10;;;;;;5154791;27;20298;-69
2022/03/20 14:39:43;;;;;;;;;;;12.10;51.40;;;;;;5155011;27;19923;-68
2022/03/20 14:42:22;;;;;;;;;;;12.40;51.40;;;;;;5136467;27;19923;-70
2022/03/20 14:44:49;;;;;;;;;;;12.10;50.60;;;;;;5136334;27;19930;-68
2022/03/20 14:47:17;;;;;;;;;;;12.20;51.00;;;;;;5154693;27;19924;-68
2022/03/20 14:49:42;;;;;;;;;;;12.30;52.40;;;;;;5154410;27;19930;-68
2022/03/20 14:52:09;;;;;;;;;;;12.40;52.90;;;;;;5158043;27;20370;-67
2022/03/20 14:54:36;;;;;;;;;;;12.40;51.70;;;;;;5158814;27;19923;-69
2022/03/20 14:57:02;;;;;;;;;;;12.60;51.90;;;;;;5158771;27;19923;-70
2022/03/20 14:59:28;;;;;;;;;;;12.70;50.50;;;;;;5158641;27;19926;-67
2022/03/20 15:01:53;;;;;;;;;;;12.80;50.40;;;;;;5140314;27;19938;-69
2022/03/20 15:04:40;;;;;;;;;;;12.90;49.90;;;;;;5158335;27;19923;-68
2022/03/20 15:07:07;;;;;;;;;;;13.00;49.80;;;;;;5158689;27;19923;-69
2022/03/20 15:12:18;;;;;;;;;;;12.70;49.40;;;;;;5158248;27;19996;-68
2022/03/20 15:14:44;;;;;;;;;;;12.90;49.50;;;;;;5158149;27;20317;-68
2022/03/20 15:17:11;;;;;;;;;;;12.80;50.00;;;;;;5158024;27;20277;-67